createdAt,value
2019-05-15T00:00:25.101Z,4.56
2019-05-15T00:01:25.253Z,4.56
2019-05-15T00:02:25.059Z,4.56
2019-05-15T00:03:25.271Z,4.62
2019-05-15T00:04:25.088Z,4.58
2019-05-15T00:05:25.200Z,4.59
2019-05-15T00:06:25.027Z,4.59
2019-05-15T00:07:25.183Z,4.59
2019-05-15T00:08:25.063Z,4.49
2019-05-15T00:09:25.152Z,4.53
2019-05-15T00:10:25.008Z,4.50
2019-05-15T00:11:25.056Z,4.45
2019-05-15T00:12:25.194Z,4.42
2019-05-15T00:13:28.082Z,4.35
2019-05-15T00:14:28.791Z,4.37
2019-05-15T00:15:24.933Z,4.35
2019-05-15T00:16:25.006Z,4.37
2019-05-15T00:17:24.942Z,4.37
2019-05-15T00:18:24.966Z,4.34
2019-05-15T00:19:24.883Z,4.42
2019-05-15T00:20:25.039Z,4.41
2019-05-15T00:21:24.885Z,4.35
2019-05-15T00:22:24.890Z,4.37
2019-05-15T00:23:24.898Z,4.35
2019-05-15T00:24:24.901Z,4.28
2019-05-15T00:25:24.929Z,4.28
2019-05-15T00:26:24.854Z,4.20
2019-05-15T00:27:24.806Z,4.12
2019-05-15T00:28:24.830Z,4.19
2019-05-15T00:29:24.786Z,4.12
2019-05-15T00:30:24.912Z,4.10
2019-05-15T00:31:24.764Z,4.10
2019-05-15T00:32:24.752Z,4.08
2019-05-15T00:33:24.984Z,4.06
2019-05-15T00:34:24.731Z,3.94
2019-05-15T00:35:28.015Z,3.98
2019-05-15T00:36:25.721Z,3.95
2019-05-15T00:37:24.721Z,3.95
2019-05-15T00:38:24.768Z,3.83
2019-05-15T00:39:24.698Z,3.86
2019-05-15T00:40:24.673Z,3.84
2019-05-15T00:41:27.816Z,3.91
2019-05-15T00:42:24.654Z,3.83
2019-05-15T00:43:24.707Z,3.76
2019-05-15T00:44:24.835Z,3.80
2019-05-15T00:45:24.622Z,3.81
2019-05-15T00:46:24.741Z,3.76
2019-05-15T00:47:24.599Z,3.70
2019-05-15T00:48:24.674Z,3.70
2019-05-15T00:49:24.583Z,3.74
2019-05-15T00:50:24.758Z,3.73
2019-05-15T00:51:24.594Z,3.62
2019-05-15T00:52:24.586Z,3.66
2019-05-15T00:53:24.569Z,3.55
2019-05-15T00:54:24.524Z,3.66
2019-05-15T00:55:24.758Z,3.65
2019-05-15T00:56:24.509Z,3.68
2019-05-15T00:57:24.602Z,3.68
2019-05-15T00:58:24.541Z,3.69
2019-05-15T00:59:29.358Z,3.69
2019-05-15T01:00:25.559Z,3.69
2019-05-15T01:01:24.684Z,3.68
2019-05-15T01:02:24.451Z,3.56
2019-05-15T01:03:24.467Z,3.62
2019-05-15T01:04:24.438Z,3.53
2019-05-15T01:05:24.614Z,3.51
2019-05-15T01:06:24.411Z,3.48
2019-05-15T01:07:24.579Z,3.48
2019-05-15T01:08:24.377Z,3.44
2019-05-15T01:09:24.414Z,3.32
2019-05-15T01:10:24.445Z,3.40
2019-05-15T01:11:24.493Z,3.40
2019-05-15T01:12:24.337Z,3.40
2019-05-15T01:13:24.448Z,3.32
2019-05-15T01:14:24.312Z,3.36
2019-05-15T01:15:24.471Z,3.34
2019-05-15T01:16:24.346Z,3.26
2019-05-15T01:17:24.369Z,3.28
2019-05-15T01:18:24.361Z,3.07
2019-05-15T01:19:24.359Z,3.25
2019-05-15T01:20:24.231Z,3.21
2019-05-15T01:21:24.289Z,3.08
2019-05-15T01:22:24.237Z,3.10
2019-05-15T01:23:24.360Z,3.11
2019-05-15T01:24:24.223Z,3.10
2019-05-15T01:25:24.373Z,3.14
2019-05-15T01:26:24.264Z,3.08
2019-05-15T01:27:24.278Z,3.10
2019-05-15T01:28:24.227Z,3.00
2019-05-15T01:29:30.980Z,3.04
2019-05-15T01:30:25.150Z,3.05
2019-05-15T01:31:24.338Z,2.98
2019-05-15T01:32:24.130Z,3.00
2019-05-15T01:33:24.317Z,3.04
2019-05-15T01:34:24.103Z,3.03
2019-05-15T01:35:24.233Z,3.07
2019-05-15T01:36:24.088Z,3.07
2019-05-15T01:37:24.115Z,3.03
2019-05-15T01:38:24.117Z,3.05
2019-05-15T01:39:24.117Z,2.97
2019-05-15T01:40:24.052Z,3.11
2019-05-15T01:41:24.249Z,2.98
2019-05-15T01:42:24.016Z,3.01
2019-05-15T01:43:24.073Z,2.95
2019-05-15T01:44:24.127Z,2.90
2019-05-15T01:45:23.999Z,2.87
2019-05-15T01:46:24.125Z,2.89
2019-05-15T01:47:23.982Z,2.97
2019-05-15T01:48:24.012Z,2.87
2019-05-15T01:49:23.949Z,2.86
2019-05-15T01:50:23.978Z,2.80
2019-05-15T01:51:23.935Z,2.75
2019-05-15T01:52:23.972Z,2.82
2019-05-15T01:53:23.957Z,2.77
2019-05-15T01:54:23.963Z,2.82
2019-05-15T01:55:25.006Z,2.75
2019-05-15T01:56:23.878Z,2.71
2019-05-15T01:57:23.996Z,2.68
2019-05-15T01:58:23.868Z,2.71
2019-05-15T01:59:23.959Z,2.72
2019-05-15T02:00:23.846Z,2.61
2019-05-15T02:01:24.003Z,2.60
2019-05-15T02:02:23.819Z,2.57
2019-05-15T02:03:23.950Z,2.57
2019-05-15T02:04:23.843Z,2.50
2019-05-15T02:05:23.786Z,2.61
2019-05-15T02:06:23.992Z,2.54
2019-05-15T02:07:23.768Z,2.46
2019-05-15T02:08:23.781Z,2.49
2019-05-15T02:09:23.761Z,2.46
2019-05-15T02:10:23.837Z,2.39
2019-05-15T02:11:23.729Z,2.43
2019-05-15T02:12:23.890Z,2.44
2019-05-15T02:13:23.718Z,2.42
2019-05-15T02:14:23.773Z,2.33
2019-05-15T02:15:23.733Z,2.29
2019-05-15T02:16:23.800Z,2.33
2019-05-15T02:17:23.679Z,2.32
2019-05-15T02:18:23.814Z,2.28
2019-05-15T02:19:23.714Z,2.26
2019-05-15T02:20:23.772Z,2.22
2019-05-15T02:21:23.726Z,2.13
2019-05-15T02:22:23.642Z,2.14
2019-05-15T02:23:23.735Z,2.18
2019-05-15T02:24:23.637Z,2.15
2019-05-15T02:25:23.772Z,2.07
2019-05-15T02:26:23.628Z,2.11
2019-05-15T02:27:23.677Z,2.13
2019-05-15T02:28:23.552Z,2.02
2019-05-15T02:29:25.083Z,2.07
2019-05-15T02:30:29.058Z,2.10
2019-05-15T02:31:25.516Z,2.11
2019-05-15T02:32:23.562Z,2.11
2019-05-15T02:33:23.510Z,1.99
2019-05-15T02:34:24.621Z,2.00
2019-05-15T02:35:23.488Z,1.95
2019-05-15T02:36:23.643Z,1.94
2019-05-15T02:37:23.507Z,1.89
2019-05-15T02:38:29.190Z,1.81
2019-05-15T02:39:23.489Z,1.74
2019-05-15T02:40:23.573Z,1.84
2019-05-15T02:41:23.416Z,1.78
2019-05-15T02:42:24.555Z,1.81
2019-05-15T02:43:23.568Z,1.81
2019-05-15T02:44:23.423Z,1.80
2019-05-15T02:45:23.491Z,1.71
2019-05-15T02:46:23.416Z,1.78
2019-05-15T02:47:23.505Z,1.74
2019-05-15T02:48:23.529Z,1.73
2019-05-15T02:49:23.369Z,1.71
2019-05-15T02:50:23.499Z,1.76
2019-05-15T02:51:23.317Z,1.66
2019-05-15T02:52:23.440Z,1.71
2019-05-15T02:53:23.370Z,1.66
2019-05-15T02:54:23.285Z,1.66
2019-05-15T02:55:23.427Z,1.73
2019-05-15T02:56:23.270Z,1.67
2019-05-15T02:57:23.376Z,1.74
2019-05-15T02:58:23.250Z,1.63
2019-05-15T02:59:23.240Z,1.67
2019-05-15T03:00:41.043Z,1.53
2019-05-15T03:01:24.233Z,1.58
2019-05-15T03:02:23.294Z,1.59
2019-05-15T03:03:23.195Z,1.48
2019-05-15T03:04:23.303Z,1.50
2019-05-15T03:05:23.224Z,1.52
2019-05-15T03:06:23.320Z,1.53
2019-05-15T03:07:23.164Z,1.52
2019-05-15T03:08:23.289Z,1.53
2019-05-15T03:09:23.138Z,1.49
2019-05-15T03:10:23.167Z,1.55
2019-05-15T03:11:23.118Z,1.53
2019-05-15T03:12:23.255Z,1.56
2019-05-15T03:13:23.147Z,1.52
2019-05-15T03:14:23.165Z,1.44
2019-05-15T03:15:23.130Z,1.38
2019-05-15T03:16:23.215Z,1.35
2019-05-15T03:17:23.053Z,1.35
2019-05-15T03:18:23.190Z,1.35
2019-05-15T03:19:23.037Z,1.30
2019-05-15T03:20:23.208Z,1.26
2019-05-15T03:21:23.058Z,1.26
2019-05-15T03:22:23.009Z,1.30
2019-05-15T03:23:23.116Z,1.20
2019-05-15T03:24:23.022Z,1.14
2019-05-15T03:25:23.081Z,1.17
2019-05-15T03:26:23.010Z,1.23
2019-05-15T03:27:25.087Z,1.08
2019-05-15T03:28:22.958Z,1.19
2019-05-15T03:29:23.094Z,1.16
2019-05-15T03:30:22.932Z,1.13
2019-05-15T03:31:43.660Z,1.16
2019-05-15T03:32:34.310Z,1.12
2019-05-15T03:33:27.634Z,1.08
2019-05-15T03:34:30.753Z,1.06
2019-05-15T03:35:23.890Z,1.04
2019-05-15T03:36:24.502Z,1.06
2019-05-15T03:37:23.080Z,0.99
2019-05-15T03:38:22.864Z,1.04
2019-05-15T03:39:22.915Z,1.12
2019-05-15T03:40:22.929Z,1.05
2019-05-15T03:41:22.801Z,1.08
2019-05-15T03:42:22.946Z,1.08
2019-05-15T03:43:22.786Z,1.05
2019-05-15T03:44:22.867Z,1.06
2019-05-15T03:45:22.785Z,1.02
2019-05-15T03:46:22.860Z,1.10
2019-05-15T03:47:22.793Z,1.01
2019-05-15T03:48:22.734Z,0.96
2019-05-15T03:49:22.791Z,0.96
2019-05-15T03:50:22.752Z,1.05
2019-05-15T03:51:22.728Z,0.99
2019-05-15T03:52:22.812Z,0.99
2019-05-15T03:53:22.688Z,0.94
2019-05-15T03:54:22.723Z,0.99
2019-05-15T03:55:22.829Z,1.04
2019-05-15T03:56:22.691Z,0.92
2019-05-15T03:57:23.274Z,0.95
2019-05-15T03:58:22.631Z,0.95
2019-05-15T03:59:22.621Z,0.99
2019-05-15T04:00:22.637Z,0.94
2019-05-15T04:01:33.992Z,1.01
2019-05-15T04:02:23.657Z,0.96
2019-05-15T04:03:22.694Z,0.95
2019-05-15T04:04:22.587Z,1.01
2019-05-15T04:05:22.576Z,0.96
2019-05-15T04:06:22.649Z,0.96
2019-05-15T04:07:22.541Z,0.96
2019-05-15T04:08:22.679Z,1.12
2019-05-15T04:09:22.534Z,1.06
2019-05-15T04:10:22.504Z,1.12
2019-05-15T04:11:22.502Z,1.22
2019-05-15T04:12:22.631Z,1.23
2019-05-15T04:13:22.534Z,1.38
2019-05-15T04:14:22.514Z,1.40
2019-05-15T04:15:22.475Z,1.32
2019-05-15T04:16:22.450Z,1.42
2019-05-15T04:17:23.543Z,1.40
2019-05-15T04:18:22.507Z,1.45
2019-05-15T04:19:22.477Z,1.49
2019-05-15T04:20:22.411Z,1.52
2019-05-15T04:21:22.444Z,1.53
2019-05-15T04:22:22.445Z,1.52
2019-05-15T04:23:22.464Z,1.67
2019-05-15T04:24:22.440Z,1.63
2019-05-15T04:25:22.382Z,1.67
2019-05-15T04:26:22.360Z,1.74
2019-05-15T04:27:22.394Z,1.78
2019-05-15T04:28:22.326Z,1.95
2019-05-15T04:29:22.512Z,2.04
2019-05-15T04:30:22.317Z,2.06
2019-05-15T04:31:22.414Z,2.07
2019-05-15T04:32:22.319Z,2.07
2019-05-15T04:33:22.399Z,2.07
2019-05-15T04:34:22.364Z,2.11
2019-05-15T04:35:22.358Z,2.17
2019-05-15T04:36:22.255Z,2.18
2019-05-15T04:37:22.250Z,2.17
2019-05-15T04:38:22.293Z,2.15
2019-05-15T04:39:22.354Z,2.35
2019-05-15T04:40:22.214Z,2.54
2019-05-15T04:41:22.297Z,2.82
2019-05-15T04:42:22.192Z,2.97
2019-05-15T04:43:22.179Z,3.10
2019-05-15T04:44:22.229Z,3.14
2019-05-15T04:45:22.294Z,3.13
2019-05-15T04:46:22.160Z,3.26
2019-05-15T04:47:22.223Z,3.36
2019-05-15T04:48:22.127Z,3.42
2019-05-15T04:49:22.148Z,3.32
2019-05-15T04:50:22.154Z,3.40
2019-05-15T04:51:22.158Z,3.36
2019-05-15T04:52:22.134Z,3.40
2019-05-15T04:53:22.166Z,3.28
2019-05-15T04:54:22.106Z,3.28
2019-05-15T04:55:22.094Z,3.23
2019-05-15T04:56:22.101Z,3.19
2019-05-15T04:57:22.316Z,3.26
2019-05-15T04:58:22.027Z,3.23
2019-05-15T04:59:22.098Z,3.29
2019-05-15T05:00:22.057Z,3.36
2019-05-15T05:01:22.027Z,3.31
2019-05-15T05:02:26.531Z,3.42
2019-05-15T05:03:23.049Z,3.53
2019-05-15T05:04:22.049Z,3.62
2019-05-15T05:05:22.058Z,3.66
2019-05-15T05:06:21.955Z,3.78
2019-05-15T05:07:21.963Z,3.83
2019-05-15T05:08:21.912Z,3.99
2019-05-15T05:09:21.976Z,4.06
2019-05-15T05:10:21.964Z,4.19
2019-05-15T05:11:24.038Z,4.30
2019-05-15T05:12:21.995Z,4.35
2019-05-15T05:13:21.882Z,4.34
2019-05-15T05:14:21.961Z,4.45
2019-05-15T05:15:21.843Z,4.56
2019-05-15T05:16:21.840Z,4.70
2019-05-15T05:17:21.851Z,4.71
2019-05-15T05:18:21.929Z,4.94
2019-05-15T05:19:21.859Z,5.04
2019-05-15T05:20:21.897Z,5.11
2019-05-15T05:21:21.783Z,5.32
2019-05-15T05:22:21.862Z,5.41
2019-05-15T05:23:21.805Z,5.41
2019-05-15T05:24:21.894Z,5.47
2019-05-15T05:25:21.747Z,5.56
2019-05-15T05:26:22.892Z,5.75
2019-05-15T05:27:21.780Z,5.83
2019-05-15T05:28:21.753Z,5.94
2019-05-15T05:29:21.784Z,5.99
2019-05-15T05:30:21.695Z,5.93
2019-05-15T05:31:21.735Z,6.02
2019-05-15T05:32:34.336Z,6.08
2019-05-15T05:33:22.657Z,6.20
2019-05-15T05:34:21.724Z,6.16
2019-05-15T05:35:21.659Z,6.31
2019-05-15T05:36:21.764Z,6.39
2019-05-15T05:37:21.686Z,6.44
2019-05-15T05:38:21.604Z,6.46
2019-05-15T05:39:21.678Z,6.48
2019-05-15T05:40:21.633Z,6.51
2019-05-15T05:41:21.769Z,6.57
2019-05-15T05:42:21.571Z,6.64
2019-05-15T05:43:21.585Z,6.66
2019-05-15T05:44:21.582Z,6.75
2019-05-15T05:45:21.599Z,6.84
2019-05-15T05:46:21.541Z,6.84
2019-05-15T05:47:21.633Z,6.85
2019-05-15T05:48:21.509Z,6.82
2019-05-15T05:49:21.534Z,6.95
2019-05-15T05:50:28.823Z,6.95
2019-05-15T05:51:21.471Z,6.99
2019-05-15T05:52:23.496Z,6.97
2019-05-15T05:53:21.658Z,6.99
2019-05-15T05:54:21.451Z,7.14
2019-05-15T05:55:21.449Z,7.14
2019-05-15T05:56:21.490Z,7.13
2019-05-15T05:57:21.456Z,7.18
2019-05-15T05:58:21.572Z,7.29
2019-05-15T05:59:21.393Z,7.24
2019-05-15T06:00:21.368Z,7.31
2019-05-15T06:01:21.439Z,7.31
2019-05-15T06:02:21.355Z,7.45
2019-05-15T06:03:21.528Z,7.53
2019-05-15T06:04:21.339Z,7.42
2019-05-15T06:05:21.328Z,7.51
2019-05-15T06:06:21.346Z,7.51
2019-05-15T06:07:21.362Z,7.50
2019-05-15T06:08:21.298Z,7.57
2019-05-15T06:09:21.378Z,7.57
2019-05-15T06:10:21.269Z,7.60
2019-05-15T06:11:21.305Z,7.66
2019-05-15T06:12:21.290Z,7.70
2019-05-15T06:13:21.239Z,7.67
2019-05-15T06:14:21.318Z,7.77
2019-05-15T06:15:21.285Z,7.82
2019-05-15T06:16:21.215Z,7.93
2019-05-15T06:17:21.298Z,7.82
2019-05-15T06:18:21.229Z,7.94
2019-05-15T06:19:21.207Z,7.97
2019-05-15T06:20:21.254Z,8.00
2019-05-15T06:21:21.179Z,8.06
2019-05-15T06:22:21.318Z,8.13
2019-05-15T06:23:24.353Z,8.10
2019-05-15T06:24:21.187Z,8.16
2019-05-15T06:25:21.113Z,8.15
2019-05-15T06:26:21.181Z,8.30
2019-05-15T06:27:21.260Z,8.34
2019-05-15T06:28:21.116Z,8.30
2019-05-15T06:29:21.213Z,8.34
2019-05-15T06:30:26.692Z,8.44
2019-05-15T06:31:22.063Z,8.48
2019-05-15T06:32:21.190Z,8.61
2019-05-15T06:33:21.045Z,8.63
2019-05-15T06:34:22.049Z,8.53
2019-05-15T06:35:21.015Z,8.64
2019-05-15T06:36:21.043Z,8.71
2019-05-15T06:37:21.062Z,8.71
2019-05-15T06:38:21.020Z,8.69
2019-05-15T06:39:20.982Z,8.74
2019-05-15T06:40:21.087Z,8.78
2019-05-15T06:41:20.946Z,8.78
2019-05-15T06:42:21.042Z,8.82
2019-05-15T06:43:20.973Z,8.81
2019-05-15T06:44:20.917Z,8.84
2019-05-15T06:45:20.922Z,8.87
2019-05-15T06:46:21.010Z,8.97
2019-05-15T06:47:20.908Z,9.00
2019-05-15T06:48:20.993Z,9.00
2019-05-15T06:49:20.873Z,9.04
2019-05-15T06:50:20.973Z,8.97
2019-05-15T06:51:20.845Z,8.99
2019-05-15T06:52:20.940Z,9.04
2019-05-15T06:53:20.904Z,9.10
2019-05-15T06:54:20.859Z,9.14
2019-05-15T06:55:20.882Z,9.18
2019-05-15T06:56:20.797Z,9.11
2019-05-15T06:57:20.947Z,9.23
2019-05-15T06:58:20.781Z,9.23
2019-05-15T06:59:20.786Z,9.36
2019-05-15T07:00:20.804Z,9.36
2019-05-15T07:01:20.751Z,9.39
2019-05-15T07:02:20.808Z,9.41
2019-05-15T07:03:25.824Z,9.56
2019-05-15T07:04:21.746Z,9.56
2019-05-15T07:05:20.767Z,9.58
2019-05-15T07:06:20.676Z,9.56
2019-05-15T07:07:20.674Z,9.55
2019-05-15T07:08:20.762Z,9.54
2019-05-15T07:09:20.714Z,9.66
2019-05-15T07:10:20.855Z,9.68
2019-05-15T07:11:20.674Z,9.79
2019-05-15T07:12:20.621Z,9.79
2019-05-15T07:13:20.681Z,9.86
2019-05-15T07:14:20.611Z,9.82
2019-05-15T07:15:21.716Z,9.86
2019-05-15T07:16:20.578Z,9.89
2019-05-15T07:17:20.614Z,9.92
2019-05-15T07:18:20.599Z,10.05
2019-05-15T07:19:20.786Z,9.95
2019-05-15T07:20:20.590Z,10.04
2019-05-15T07:21:20.771Z,10.13
2019-05-15T07:22:20.564Z,10.17
2019-05-15T07:23:20.557Z,10.12
2019-05-15T07:24:20.503Z,10.15
2019-05-15T07:25:21.565Z,10.20
2019-05-15T07:26:20.527Z,10.17
2019-05-15T07:27:20.565Z,10.26
2019-05-15T07:28:20.460Z,10.19
2019-05-15T07:29:20.459Z,10.26
2019-05-15T07:30:20.437Z,10.33
2019-05-15T07:31:20.544Z,10.34
2019-05-15T07:32:20.467Z,10.31
2019-05-15T07:33:35.454Z,10.44
2019-05-15T07:34:21.387Z,10.34
2019-05-15T07:35:20.474Z,10.35
2019-05-15T07:36:20.423Z,10.31
2019-05-15T07:37:20.510Z,10.35
2019-05-15T07:38:20.349Z,10.41
2019-05-15T07:39:20.439Z,10.44
2019-05-15T07:40:20.345Z,10.38
2019-05-15T07:41:20.365Z,10.38
2019-05-15T07:42:20.345Z,10.42
2019-05-15T07:43:20.425Z,10.35
2019-05-15T07:44:20.329Z,10.41
2019-05-15T07:45:20.292Z,10.48
2019-05-15T07:46:20.268Z,10.51
2019-05-15T07:47:20.343Z,10.60
2019-05-15T07:48:20.239Z,10.69
2019-05-15T07:49:20.301Z,10.68
2019-05-15T07:50:20.222Z,10.68
2019-05-15T07:51:20.286Z,10.81
2019-05-15T07:52:20.216Z,10.82
2019-05-15T07:53:20.434Z,10.86
2019-05-15T07:54:20.183Z,10.86
2019-05-15T07:55:20.259Z,10.81
2019-05-15T07:56:20.248Z,10.93
2019-05-15T07:57:20.142Z,10.94
2019-05-15T07:58:21.917Z,10.94
2019-05-15T07:59:20.161Z,10.96
2019-05-15T08:00:20.181Z,11.10
2019-05-15T08:01:20.121Z,11.04
2019-05-15T08:02:20.255Z,11.07
2019-05-15T08:03:20.087Z,11.07
2019-05-15T08:04:28.738Z,11.23
2019-05-15T08:05:21.118Z,11.29
2019-05-15T08:06:20.151Z,11.26
2019-05-15T08:07:20.119Z,11.25
2019-05-15T08:08:20.037Z,11.43
2019-05-15T08:09:21.128Z,11.40
2019-05-15T08:10:20.011Z,11.30
2019-05-15T08:11:24.461Z,11.43
2019-05-15T08:12:20.040Z,11.33
2019-05-15T08:13:20.237Z,11.37
2019-05-15T08:14:20.007Z,11.36
2019-05-15T08:15:20.025Z,11.37
2019-05-15T08:16:19.948Z,11.35
2019-05-15T08:17:22.021Z,11.37
2019-05-15T08:18:20.047Z,11.44
2019-05-15T08:19:19.924Z,11.41
2019-05-15T08:20:20.089Z,11.45
2019-05-15T08:21:19.943Z,11.57
2019-05-15T08:22:19.918Z,11.60
2019-05-15T08:23:19.876Z,11.55
2019-05-15T08:24:19.943Z,11.65
2019-05-15T08:25:31.067Z,11.68
2019-05-15T08:26:20.909Z,11.78
2019-05-15T08:27:19.863Z,11.78
2019-05-15T08:28:19.865Z,11.78
2019-05-15T08:29:21.838Z,11.88
2019-05-15T08:30:19.866Z,11.87
2019-05-15T08:31:19.794Z,11.88
2019-05-15T08:32:19.908Z,11.84
2019-05-15T08:33:19.879Z,12.03
2019-05-15T08:34:19.895Z,11.97
2019-05-15T08:35:19.749Z,12.02
2019-05-15T08:36:19.807Z,12.07
2019-05-15T08:37:19.730Z,12.07
2019-05-15T08:38:19.793Z,11.99
2019-05-15T08:39:19.760Z,12.07
2019-05-15T08:40:19.722Z,12.07
2019-05-15T08:41:19.740Z,12.09
2019-05-15T08:42:19.683Z,12.13
2019-05-15T08:43:19.753Z,12.27
2019-05-15T08:44:19.688Z,12.28
2019-05-15T08:45:19.645Z,12.27
2019-05-15T08:46:19.662Z,12.32
2019-05-15T08:47:19.699Z,12.32
2019-05-15T08:48:19.676Z,12.28
2019-05-15T08:49:20.504Z,12.39
2019-05-15T08:50:19.589Z,12.47
2019-05-15T08:51:19.582Z,12.53
2019-05-15T08:52:19.674Z,12.49
2019-05-15T08:53:19.787Z,12.42
2019-05-15T08:54:19.641Z,12.47
2019-05-15T08:55:20.216Z,12.47
2019-05-15T08:56:19.737Z,12.58
2019-05-15T08:57:20.487Z,12.72
2019-05-15T08:58:20.622Z,12.70
2019-05-15T08:59:19.571Z,12.70
2019-05-15T09:00:19.554Z,12.73
2019-05-15T09:01:19.587Z,12.76
2019-05-15T09:02:19.459Z,12.75
2019-05-15T09:03:19.499Z,12.75
2019-05-15T09:04:30.457Z,12.70
2019-05-15T09:05:20.489Z,12.78
2019-05-15T09:06:22.867Z,12.80
2019-05-15T09:07:19.550Z,12.80
2019-05-15T09:08:19.969Z,12.78
2019-05-15T09:09:19.425Z,12.86
2019-05-15T09:10:19.422Z,12.86
2019-05-15T09:11:19.447Z,12.86
2019-05-15T09:12:19.356Z,12.85
2019-05-15T09:13:19.488Z,12.87
2019-05-15T09:14:19.333Z,12.90
2019-05-15T09:15:19.420Z,12.86
2019-05-15T09:16:19.325Z,12.91
2019-05-15T09:17:19.369Z,12.86
2019-05-15T09:18:20.465Z,12.86
2019-05-15T09:19:19.405Z,12.86
2019-05-15T09:20:19.643Z,12.94
2019-05-15T09:21:19.535Z,13.00
2019-05-15T09:22:19.295Z,13.04
2019-05-15T09:23:19.891Z,13.01
2019-05-15T09:24:19.862Z,13.05
2019-05-15T09:25:19.584Z,12.98
2019-05-15T09:26:19.620Z,12.87
2019-05-15T09:27:19.310Z,13.00
2019-05-15T09:28:19.587Z,12.97
2019-05-15T09:29:19.202Z,12.98
2019-05-15T09:30:19.257Z,13.04
2019-05-15T09:31:19.482Z,13.08
2019-05-15T09:32:19.360Z,13.19
2019-05-15T09:33:19.957Z,13.20
2019-05-15T09:34:19.134Z,13.16
2019-05-15T09:35:19.180Z,13.33
2019-05-15T09:36:20.244Z,13.31
2019-05-15T09:37:19.096Z,13.38
2019-05-15T09:38:19.202Z,13.22
2019-05-15T09:39:19.079Z,13.28
2019-05-15T09:40:19.087Z,13.22
2019-05-15T09:41:19.130Z,13.28
2019-05-15T09:42:19.092Z,13.35
2019-05-15T09:43:19.152Z,13.47
2019-05-15T09:44:21.749Z,13.52
2019-05-15T09:45:19.043Z,13.52
2019-05-15T09:46:19.019Z,13.56
2019-05-15T09:47:19.126Z,13.59
2019-05-15T09:48:20.036Z,13.72
2019-05-15T09:49:19.086Z,13.71
2019-05-15T09:50:19.518Z,13.65
2019-05-15T09:51:18.988Z,13.49
2019-05-15T09:52:22.687Z,13.52
2019-05-15T09:53:19.559Z,13.59
2019-05-15T09:54:19.299Z,13.65
2019-05-15T09:55:18.902Z,13.71
2019-05-15T09:56:18.944Z,13.78
2019-05-15T09:57:19.007Z,13.74
2019-05-15T09:58:20.436Z,13.77
2019-05-15T09:59:18.934Z,13.81
2019-05-15T10:00:19.157Z,13.85
2019-05-15T10:01:19.578Z,13.87
2019-05-15T10:02:19.177Z,13.83
2019-05-15T10:03:19.158Z,13.87
2019-05-15T10:04:19.196Z,13.89
2019-05-15T10:05:18.991Z,13.96
2019-05-15T10:06:20.502Z,13.96
2019-05-15T10:07:19.401Z,14.03
2019-05-15T10:08:21.363Z,14.07
2019-05-15T10:09:19.119Z,14.07
2019-05-15T10:10:19.313Z,14.10
2019-05-15T10:11:19.785Z,14.12
2019-05-15T10:12:18.725Z,14.23
2019-05-15T10:13:18.857Z,14.30
2019-05-15T10:14:19.451Z,14.33
2019-05-15T10:15:18.840Z,14.41
2019-05-15T10:16:19.883Z,14.55
2019-05-15T10:17:18.762Z,14.66
2019-05-15T10:18:19.247Z,14.69
2019-05-15T10:19:18.787Z,14.70
2019-05-15T10:20:18.647Z,14.55
2019-05-15T10:21:18.882Z,14.48
2019-05-15T10:22:18.855Z,14.47
2019-05-15T10:23:19.851Z,14.53
2019-05-15T10:24:18.593Z,14.58
2019-05-15T10:25:19.094Z,14.47
2019-05-15T10:26:19.237Z,14.48
2019-05-15T10:27:18.684Z,14.41
2019-05-15T10:28:19.109Z,14.41
2019-05-15T10:29:18.544Z,14.54
2019-05-15T10:30:19.052Z,14.47
2019-05-15T10:31:19.470Z,14.51
2019-05-15T10:32:19.437Z,14.51
2019-05-15T10:33:19.738Z,14.47
2019-05-15T10:34:18.543Z,14.47
2019-05-15T10:35:25.504Z,14.51
2019-05-15T10:36:19.488Z,14.55
2019-05-15T10:37:21.729Z,14.59
2019-05-15T10:38:19.288Z,14.66
2019-05-15T10:39:18.592Z,14.65
2019-05-15T10:40:20.385Z,14.58
2019-05-15T10:41:19.003Z,14.59
2019-05-15T10:42:19.337Z,14.53
2019-05-15T10:43:20.570Z,14.47
2019-05-15T10:44:18.390Z,14.60
2019-05-15T10:45:19.246Z,14.33
2019-05-15T10:46:19.053Z,14.32
2019-05-15T10:47:18.548Z,14.47
2019-05-15T10:48:19.104Z,14.50
2019-05-15T10:49:18.918Z,14.44
2019-05-15T10:50:19.152Z,14.48
2019-05-15T10:51:19.430Z,14.51
2019-05-15T10:52:18.525Z,14.54
2019-05-15T10:53:18.989Z,14.55
2019-05-15T10:54:19.294Z,14.68
2019-05-15T10:55:18.908Z,14.89
2019-05-15T10:56:18.703Z,15.04
2019-05-15T10:57:18.896Z,14.99
2019-05-15T10:58:22.218Z,15.24
2019-05-15T10:59:18.492Z,15.31
2019-05-15T11:00:19.457Z,15.54
2019-05-15T11:01:19.251Z,15.90
2019-05-15T11:02:19.166Z,16.16
2019-05-15T11:03:20.060Z,16.42
2019-05-15T11:04:18.238Z,16.93
2019-05-15T11:05:18.293Z,17.23
2019-05-15T11:06:18.444Z,17.19
2019-05-15T11:07:19.467Z,17.05
2019-05-15T11:08:18.821Z,17.70
2019-05-15T11:09:18.679Z,18.40
2019-05-15T11:10:18.686Z,19.12
2019-05-15T11:11:18.491Z,19.67
2019-05-15T11:12:18.847Z,20.06
2019-05-15T11:13:18.822Z,20.51
2019-05-15T11:14:18.505Z,20.97
2019-05-15T11:15:18.632Z,21.25
2019-05-15T11:16:18.565Z,21.67
2019-05-15T11:17:18.216Z,22.15
2019-05-15T11:18:18.026Z,22.59
2019-05-15T11:19:18.018Z,22.96
2019-05-15T11:20:18.803Z,22.94
2019-05-15T11:21:19.025Z,22.72
2019-05-15T11:22:18.792Z,21.77
2019-05-15T11:23:20.068Z,21.40
2019-05-15T11:24:19.580Z,21.07
2019-05-15T11:25:17.954Z,20.66
2019-05-15T11:26:20.242Z,19.24
2019-05-15T11:27:19.091Z,18.56
2019-05-15T11:28:18.094Z,19.08
2019-05-15T11:29:17.912Z,18.53
2019-05-15T11:30:19.193Z,17.44
2019-05-15T11:31:17.892Z,16.33
2019-05-15T11:32:18.071Z,15.88
2019-05-15T11:33:18.989Z,15.94
2019-05-15T11:34:18.952Z,15.92
2019-05-15T11:35:18.544Z,16.91
2019-05-15T11:36:18.504Z,17.34
2019-05-15T11:37:18.991Z,17.63
2019-05-15T11:38:19.413Z,17.42
2019-05-15T11:39:18.363Z,17.09
2019-05-15T11:40:18.865Z,17.08
2019-05-15T11:41:19.123Z,17.85
2019-05-15T11:42:20.097Z,18.60
2019-05-15T11:43:19.709Z,19.44
2019-05-15T11:44:18.792Z,20.29
2019-05-15T11:45:18.640Z,21.11
2019-05-15T11:46:18.616Z,21.82
2019-05-15T11:47:18.446Z,21.91
2019-05-15T11:48:20.595Z,21.33
2019-05-15T11:49:18.222Z,20.41
2019-05-15T11:50:20.549Z,19.51
2019-05-15T11:51:18.480Z,18.78
2019-05-15T11:52:18.765Z,18.25
2019-05-15T11:53:19.252Z,18.10
2019-05-15T11:54:19.147Z,17.79
2019-05-15T11:55:17.658Z,17.71
2019-05-15T11:56:18.876Z,18.35
2019-05-15T11:57:19.082Z,19.02
2019-05-15T11:58:18.953Z,19.62
2019-05-15T11:59:18.448Z,20.26
2019-05-15T12:00:25.710Z,20.95
2019-05-15T12:01:19.645Z,21.32
2019-05-15T12:02:18.878Z,21.35
2019-05-15T12:03:19.592Z,21.39
2019-05-15T12:04:29.636Z,21.93
2019-05-15T12:05:18.626Z,21.30
2019-05-15T12:06:21.871Z,20.69
2019-05-15T12:07:18.562Z,20.16
2019-05-15T12:08:18.519Z,19.54
2019-05-15T12:09:18.803Z,18.96
2019-05-15T12:10:18.416Z,18.40
2019-05-15T12:11:32.108Z,17.95
2019-05-15T12:12:18.517Z,17.54
2019-05-15T12:13:19.012Z,17.29
2019-05-15T12:14:19.338Z,17.08
2019-05-15T12:15:19.083Z,16.86
2019-05-15T12:16:18.494Z,16.91
2019-05-15T12:17:18.970Z,16.81
2019-05-15T12:18:17.575Z,16.65
2019-05-15T12:19:17.651Z,16.79
2019-05-15T12:20:19.285Z,17.20
2019-05-15T12:21:19.856Z,17.20
2019-05-15T12:22:17.583Z,17.16
2019-05-15T12:23:17.323Z,17.15
2019-05-15T12:24:17.494Z,17.24
2019-05-15T12:25:17.367Z,17.19
2019-05-15T12:26:17.512Z,17.45
2019-05-15T12:27:18.397Z,16.91
2019-05-15T12:28:17.321Z,16.50
2019-05-15T12:29:17.285Z,16.32
2019-05-15T12:30:19.869Z,16.29
2019-05-15T12:31:17.293Z,16.38
2019-05-15T12:33:18.491Z,16.42
2019-05-15T12:34:18.850Z,16.36
2019-05-15T12:35:20.388Z,16.35
2019-05-15T12:37:19.778Z,16.46
2019-05-15T12:38:18.588Z,16.47
2019-05-15T12:39:21.797Z,16.56
2019-05-15T13:00:18.578Z,23.78
2019-05-15T13:01:18.379Z,23.20
2019-05-15T13:02:18.684Z,22.70
2019-05-15T13:03:18.216Z,22.33
2019-05-15T13:04:16.924Z,21.15
2019-05-15T13:05:19.208Z,19.55
2019-05-15T13:06:19.298Z,18.84
2019-05-15T13:07:19.866Z,18.19
2019-05-15T13:08:19.306Z,17.85
2019-05-15T13:09:16.888Z,17.98
2019-05-15T13:10:18.404Z,18.80
2019-05-15T13:11:18.030Z,19.71
2019-05-15T13:12:18.260Z,20.72
2019-05-15T13:13:18.644Z,21.42
2019-05-15T13:14:18.840Z,21.76
2019-05-15T13:15:18.944Z,21.52
2019-05-15T13:16:18.850Z,20.43
2019-05-15T13:17:18.345Z,19.62
2019-05-15T13:18:18.000Z,18.86
2019-05-15T13:19:18.941Z,18.28
2019-05-15T13:20:18.453Z,17.85
2019-05-15T13:21:20.925Z,17.45
2019-05-15T13:22:20.604Z,17.26
2019-05-15T13:23:17.810Z,17.04
2019-05-15T13:24:19.228Z,16.96
2019-05-15T13:25:18.911Z,16.87
2019-05-15T13:26:23.859Z,16.91
2019-05-15T13:27:18.402Z,16.94
2019-05-15T13:28:18.431Z,17.11